sensor_id;sensor_type;location;lat;lon;timestamp;P1;durP1;ratioP1;P2;durP2;ratioP2
61038;SDS011;46919;45.816;3.104;2022-08-19T00:02:01;6.13;;;2.90;;
61038;SDS011;46919;45.816;3.104;2022-08-19T00:04:33;7.78;;;2.92;;
61038;SDS011;46919;45.816;3.104;2022-08-19T00:07:01;4.95;;;2.50;;
61038;SDS011;46919;45.816;3.104;2022-08-19T00:09:29;3.60;;;3.30;;
61038;SDS011;46919;45.816;3.104;2022-08-19T00:11:55;4.20;;;3.50;;
61038;SDS011;46919;45.816;3.104;2022-08-19T00:14:23;7.43;;;3.78;;
61038;SDS011;46919;45.816;3.104;2022-08-19T00:16:49;3.75;;;3.45;;
61038;SDS011;46919;45.816;3.104;2022-08-19T00:19:18;4.22;;;3.83;;
61038;SDS011;46919;45.816;3.104;2022-08-19T00:21:45;6.03;;;4.07;;
61038;SDS011;46919;45.816;3.104;2022-08-19T00:24:11;5.05;;;2.75;;
61038;SDS011;46919;45.816;3.104;2022-08-19T00:26:38;3.65;;;2.58;;
61038;SDS011;46919;45.816;3.104;2022-08-19T00:29:05;4.78;;;2.67;;
61038;SDS011;46919;45.816;3.104;2022-08-19T00:31:36;2.83;;;2.20;;
61038;SDS011;46919;45.816;3.104;2022-08-19T00:34:02;3.95;;;2.53;;
61038;SDS011;46919;45.816;3.104;2022-08-19T00:36:28;3.67;;;2.33;;
61038;SDS011;46919;45.816;3.104;2022-08-19T00:38:54;3.72;;;2.28;;
61038;SDS011;46919;45.816;3.104;2022-08-19T00:41:20;4.60;;;2.47;;
61038;SDS011;46919;45.816;3.104;2022-08-19T00:44:04;4.93;;;2.03;;
61038;SDS011;46919;45.816;3.104;2022-08-19T00:46:31;2.80;;;2.08;;
61038;SDS011;46919;45.816;3.104;2022-08-19T00:48:58;2.85;;;2.08;;
61038;SDS011;46919;45.816;3.104;2022-08-19T00:51:28;2.05;;;1.77;;
61038;SDS011;46919;45.816;3.104;2022-08-19T00:53:55;3.42;;;2.10;;
61038;SDS011;46919;45.816;3.104;2022-08-19T00:56:23;3.30;;;2.17;;
61038;SDS011;46919;45.816;3.104;2022-08-19T00:58:51;3.38;;;1.90;;
61038;SDS011;46919;45.816;3.104;2022-08-19T01:01:17;4.10;;;2.08;;
61038;SDS011;46919;45.816;3.104;2022-08-19T01:03:42;3.90;;;2.50;;
61038;SDS011;46919;45.816;3.104;2022-08-19T01:06:07;3.63;;;1.80;;
61038;SDS011;46919;45.816;3.104;2022-08-19T01:08:33;3.38;;;2.50;;
61038;SDS011;46919;45.816;3.104;2022-08-19T01:10:59;5.60;;;2.20;;
61038;SDS011;46919;45.816;3.104;2022-08-19T01:13:27;4.32;;;2.58;;
61038;SDS011;46919;45.816;3.104;2022-08-19T01:15:56;3.15;;;2.13;;
61038;SDS011;46919;45.816;3.104;2022-08-19T01:18:24;4.68;;;2.58;;
61038;SDS011;46919;45.816;3.104;2022-08-19T01:20:51;4.80;;;2.33;;
61038;SDS011;46919;45.816;3.104;2022-08-19T01:23:21;3.85;;;2.53;;
61038;SDS011;46919;45.816;3.104;2022-08-19T01:25:48;3.45;;;2.30;;
61038;SDS011;46919;45.816;3.104;2022-08-19T01:28:16;3.70;;;2.40;;
61038;SDS011;46919;45.816;3.104;2022-08-19T01:30:43;2.70;;;2.45;;
61038;SDS011;46919;45.816;3.104;2022-08-19T01:33:09;2.35;;;2.00;;
61038;SDS011;46919;45.816;3.104;2022-08-19T01:35:34;5.18;;;2.75;;
61038;SDS011;46919;45.816;3.104;2022-08-19T01:38:02;4.05;;;2.00;;
61038;SDS011;46919;45.816;3.104;2022-08-19T01:43:00;5.55;;;2.20;;
61038;SDS011;46919;45.816;3.104;2022-08-19T01:45:28;3.58;;;2.30;;
61038;SDS011;46919;45.816;3.104;2022-08-19T01:47:55;1.98;;;1.80;;
61038;SDS011;46919;45.816;3.104;2022-08-19T01:50:21;3.95;;;2.55;;
61038;SDS011;46919;45.816;3.104;2022-08-19T01:52:46;2.28;;;2.08;;
61038;SDS011;46919;45.816;3.104;2022-08-19T01:55:14;4.47;;;2.28;;
61038;SDS011;46919;45.816;3.104;2022-08-19T01:57:42;5.93;;;2.22;;
61038;SDS011;46919;45.816;3.104;2022-08-19T02:00:14;6.82;;;2.75;;
61038;SDS011;46919;45.816;3.104;2022-08-19T02:02:41;3.55;;;2.03;;
61038;SDS011;46919;45.816;3.104;2022-08-19T02:05:07;4.45;;;2.10;;
61038;SDS011;46919;45.816;3.104;2022-08-19T02:07:33;5.70;;;2.30;;
61038;SDS011;46919;45.816;3.104;2022-08-19T02:10:01;5.55;;;2.38;;
61038;SDS011;46919;45.816;3.104;2022-08-19T02:12:37;2.20;;;2.00;;
61038;SDS011;46919;45.816;3.104;2022-08-19T02:15:03;4.30;;;2.25;;
61038;SDS011;46919;45.816;3.104;2022-08-19T02:17:29;3.78;;;2.30;;
61038;SDS011;46919;45.816;3.104;2022-08-19T02:19:55;2.83;;;2.30;;
61038;SDS011;46919;45.816;3.104;2022-08-19T02:22:21;5.72;;;2.60;;
61038;SDS011;46919;45.816;3.104;2022-08-19T02:24:47;4.72;;;2.42;;
61038;SDS011;46919;45.816;3.104;2022-08-19T02:27:13;5.63;;;2.72;;
61038;SDS011;46919;45.816;3.104;2022-08-19T02:29:39;3.50;;;2.53;;
61038;SDS011;46919;45.816;3.104;2022-08-19T02:32:06;2.92;;;2.60;;
61038;SDS011;46919;45.816;3.104;2022-08-19T02:34:33;2.63;;;2.42;;
61038;SDS011;46919;45.816;3.104;2022-08-19T02:36:58;2.65;;;2.38;;
61038;SDS011;46919;45.816;3.104;2022-08-19T02:39:24;4.60;;;2.88;;
61038;SDS011;46919;45.816;3.104;2022-08-19T02:41:51;5.20;;;3.20;;
61038;SDS011;46919;45.816;3.104;2022-08-19T02:44:17;6.30;;;2.30;;
61038;SDS011;46919;45.816;3.104;2022-08-19T02:46:44;4.30;;;2.97;;
61038;SDS011;46919;45.816;3.104;2022-08-19T02:49:10;4.65;;;3.17;;
61038;SDS011;46919;45.816;3.104;2022-08-19T02:51:37;6.60;;;3.05;;
61038;SDS011;46919;45.816;3.104;2022-08-19T02:54:05;11.27;;;3.72;;
61038;SDS011;46919;45.816;3.104;2022-08-19T02:56:33;6.20;;;3.17;;
61038;SDS011;46919;45.816;3.104;2022-08-19T02:58:59;4.80;;;3.58;;
61038;SDS011;46919;45.816;3.104;2022-08-19T03:01:26;7.28;;;3.53;;
61038;SDS011;46919;45.816;3.104;2022-08-19T03:03:53;6.53;;;3.58;;
61038;SDS011;46919;45.816;3.104;2022-08-19T03:06:20;7.25;;;4.05;;
61038;SDS011;46919;45.816;3.104;2022-08-19T03:08:47;6.05;;;4.20;;
61038;SDS011;46919;45.816;3.104;2022-08-19T03:11:25;6.03;;;4.22;;
61038;SDS011;46919;45.816;3.104;2022-08-19T03:13:52;7.20;;;4.40;;
61038;SDS011;46919;45.816;3.104;2022-08-19T03:16:20;4.82;;;4.32;;
61038;SDS011;46919;45.816;3.104;2022-08-19T03:18:48;5.55;;;4.40;;
61038;SDS011;46919;45.816;3.104;2022-08-19T03:21:17;6.13;;;4.95;;
61038;SDS011;46919;45.816;3.104;2022-08-19T03:23:45;5.65;;;4.25;;
61038;SDS011;46919;45.816;3.104;2022-08-19T03:26:11;9.05;;;5.10;;
61038;SDS011;46919;45.816;3.104;2022-08-19T03:28:37;7.10;;;5.68;;
61038;SDS011;46919;45.816;3.104;2022-08-19T03:31:04;10.27;;;5.95;;
61038;SDS011;46919;45.816;3.104;2022-08-19T03:33:32;7.82;;;5.72;;
61038;SDS011;46919;45.816;3.104;2022-08-19T03:36:09;10.75;;;5.55;;
61038;SDS011;46919;45.816;3.104;2022-08-19T03:38:38;6.68;;;5.80;;
61038;SDS011;46919;45.816;3.104;2022-08-19T03:41:07;7.60;;;5.78;;
61038;SDS011;46919;45.816;3.104;2022-08-19T03:43:35;8.60;;;5.78;;
61038;SDS011;46919;45.816;3.104;2022-08-19T03:46:06;9.48;;;6.47;;
61038;SDS011;46919;45.816;3.104;2022-08-19T03:48:34;6.88;;;5.93;;
61038;SDS011;46919;45.816;3.104;2022-08-19T03:51:02;8.25;;;6.70;;
61038;SDS011;46919;45.816;3.104;2022-08-19T03:53:28;9.15;;;6.60;;
61038;SDS011;46919;45.816;3.104;2022-08-19T03:55:55;6.57;;;5.82;;
61038;SDS011;46919;45.816;3.104;2022-08-19T03:58:21;7.93;;;6.82;;
61038;SDS011;46919;45.816;3.104;2022-08-19T04:00:47;8.43;;;6.32;;
61038;SDS011;46919;45.816;3.104;2022-08-19T04:03:13;8.75;;;6.45;;
61038;SDS011;46919;45.816;3.104;2022-08-19T04:05:39;11.73;;;6.90;;
61038;SDS011;46919;45.816;3.104;2022-08-19T04:08:04;8.82;;;7.13;;
61038;SDS011;46919;45.816;3.104;2022-08-19T04:10:31;8.23;;;7.10;;
61038;SDS011;46919;45.816;3.104;2022-08-19T04:13:00;8.75;;;7.40;;
61038;SDS011;46919;45.816;3.104;2022-08-19T04:15:26;13.40;;;7.38;;
61038;SDS011;46919;45.816;3.104;2022-08-19T04:17:52;10.15;;;8.25;;
61038;SDS011;46919;45.816;3.104;2022-08-19T04:20:18;9.10;;;7.93;;
61038;SDS011;46919;45.816;3.104;2022-08-19T04:22:43;13.40;;;7.97;;
61038;SDS011;46919;45.816;3.104;2022-08-19T04:25:09;9.20;;;8.13;;
61038;SDS011;46919;45.816;3.104;2022-08-19T04:27:34;11.27;;;8.60;;
61038;SDS011;46919;45.816;3.104;2022-08-19T04:30:00;8.68;;;7.35;;
61038;SDS011;46919;45.816;3.104;2022-08-19T04:32:25;13.38;;;8.07;;
61038;SDS011;46919;45.816;3.104;2022-08-19T04:34:51;11.15;;;7.68;;
61038;SDS011;46919;45.816;3.104;2022-08-19T04:37:16;10.35;;;7.88;;
61038;SDS011;46919;45.816;3.104;2022-08-19T04:39:41;9.27;;;8.38;;
61038;SDS011;46919;45.816;3.104;2022-08-19T04:42:25;11.32;;;7.75;;
61038;SDS011;46919;45.816;3.104;2022-08-19T04:45:07;10.98;;;7.88;;
61038;SDS011;46919;45.816;3.104;2022-08-19T04:47:35;10.50;;;8.70;;
61038;SDS011;46919;45.816;3.104;2022-08-19T04:50:02;10.95;;;9.05;;
61038;SDS011;46919;45.816;3.104;2022-08-19T04:52:28;11.10;;;8.48;;
61038;SDS011;46919;45.816;3.104;2022-08-19T04:54:53;10.38;;;9.27;;
61038;SDS011;46919;45.816;3.104;2022-08-19T04:57:20;12.43;;;10.52;;
61038;SDS011;46919;45.816;3.104;2022-08-19T04:59:46;14.15;;;9.73;;
61038;SDS011;46919;45.816;3.104;2022-08-19T05:02:11;12.25;;;9.70;;
61038;SDS011;46919;45.816;3.104;2022-08-19T05:04:36;15.10;;;9.82;;
61038;SDS011;46919;45.816;3.104;2022-08-19T05:07:04;12.63;;;9.30;;
61038;SDS011;46919;45.816;3.104;2022-08-19T05:09:30;12.88;;;9.52;;
61038;SDS011;46919;45.816;3.104;2022-08-19T05:11:55;13.52;;;10.38;;
61038;SDS011;46919;45.816;3.104;2022-08-19T05:14:21;11.63;;;10.43;;
61038;SDS011;46919;45.816;3.104;2022-08-19T05:16:47;11.73;;;10.52;;
61038;SDS011;46919;45.816;3.104;2022-08-19T05:19:12;14.73;;;10.55;;
61038;SDS011;46919;45.816;3.104;2022-08-19T05:21:57;14.25;;;10.90;;
61038;SDS011;46919;45.816;3.104;2022-08-19T05:24:41;16.75;;;11.70;;
61038;SDS011;46919;45.816;3.104;2022-08-19T05:27:06;15.68;;;11.05;;
61038;SDS011;46919;45.816;3.104;2022-08-19T05:29:32;12.57;;;10.23;;
61038;SDS011;46919;45.816;3.104;2022-08-19T05:31:59;13.50;;;10.13;;
61038;SDS011;46919;45.816;3.104;2022-08-19T05:34:25;10.35;;;9.27;;
61038;SDS011;46919;45.816;3.104;2022-08-19T05:36:55;12.40;;;10.80;;
61038;SDS011;46919;45.816;3.104;2022-08-19T05:39:23;15.60;;;10.30;;
61038;SDS011;46919;45.816;3.104;2022-08-19T05:41:53;13.02;;;10.20;;
61038;SDS011;46919;45.816;3.104;2022-08-19T05:44:22;12.10;;;10.20;;
61038;SDS011;46919;45.816;3.104;2022-08-19T05:46:50;13.70;;;10.40;;
61038;SDS011;46919;45.816;3.104;2022-08-19T05:49:18;13.45;;;11.23;;
61038;SDS011;46919;45.816;3.104;2022-08-19T05:51:45;13.63;;;11.23;;
61038;SDS011;46919;45.816;3.104;2022-08-19T05:54:10;12.10;;;10.70;;
61038;SDS011;46919;45.816;3.104;2022-08-19T05:56:38;13.63;;;11.18;;
61038;SDS011;46919;45.816;3.104;2022-08-19T05:59:06;16.70;;;12.38;;
61038;SDS011;46919;45.816;3.104;2022-08-19T06:01:36;16.10;;;12.63;;
61038;SDS011;46919;45.816;3.104;2022-08-19T06:04:03;16.75;;;12.32;;
61038;SDS011;46919;45.816;3.104;2022-08-19T06:06:29;13.38;;;11.98;;
61038;SDS011;46919;45.816;3.104;2022-08-19T06:08:54;13.55;;;11.20;;
61038;SDS011;46919;45.816;3.104;2022-08-19T06:14:00;11.65;;;10.48;;
61038;SDS011;46919;45.816;3.104;2022-08-19T06:16:37;12.68;;;10.93;;
61038;SDS011;46919;45.816;3.104;2022-08-19T06:19:05;11.60;;;10.40;;
61038;SDS011;46919;45.816;3.104;2022-08-19T06:21:33;13.63;;;11.50;;
61038;SDS011;46919;45.816;3.104;2022-08-19T06:23:59;12.02;;;10.82;;
61038;SDS011;46919;45.816;3.104;2022-08-19T06:26:24;13.75;;;10.27;;
61038;SDS011;46919;45.816;3.104;2022-08-19T06:28:51;11.82;;;10.68;;
61038;SDS011;46919;45.816;3.104;2022-08-19T06:31:18;12.30;;;10.45;;
61038;SDS011;46919;45.816;3.104;2022-08-19T06:33:47;12.10;;;10.15;;
61038;SDS011;46919;45.816;3.104;2022-08-19T06:36:23;13.52;;;10.48;;
61038;SDS011;46919;45.816;3.104;2022-08-19T06:38:54;11.70;;;10.50;;
61038;SDS011;46919;45.816;3.104;2022-08-19T06:41:22;16.33;;;11.00;;
61038;SDS011;46919;45.816;3.104;2022-08-19T06:43:47;11.82;;;10.65;;
61038;SDS011;46919;45.816;3.104;2022-08-19T06:46:14;12.38;;;11.18;;
61038;SDS011;46919;45.816;3.104;2022-08-19T06:48:40;13.05;;;11.75;;
61038;SDS011;46919;45.816;3.104;2022-08-19T06:51:06;13.65;;;11.18;;
61038;SDS011;46919;45.816;3.104;2022-08-19T06:53:32;12.02;;;10.73;;
61038;SDS011;46919;45.816;3.104;2022-08-19T06:55:58;15.85;;;11.27;;
61038;SDS011;46919;45.816;3.104;2022-08-19T06:58:28;14.05;;;10.98;;
61038;SDS011;46919;45.816;3.104;2022-08-19T07:01:00;15.33;;;10.93;;
61038;SDS011;46919;45.816;3.104;2022-08-19T07:03:29;13.95;;;11.27;;
61038;SDS011;46919;45.816;3.104;2022-08-19T07:05:57;11.98;;;10.70;;
61038;SDS011;46919;45.816;3.104;2022-08-19T07:08:23;11.75;;;10.65;;
61038;SDS011;46919;45.816;3.104;2022-08-19T07:10:51;13.02;;;10.43;;
61038;SDS011;46919;45.816;3.104;2022-08-19T07:13:18;11.45;;;9.98;;
61038;SDS011;46919;45.816;3.104;2022-08-19T07:15:44;13.13;;;10.82;;
61038;SDS011;46919;45.816;3.104;2022-08-19T07:18:11;12.38;;;11.10;;
61038;SDS011;46919;45.816;3.104;2022-08-19T07:20:36;12.75;;;11.45;;
61038;SDS011;46919;45.816;3.104;2022-08-19T07:23:04;11.27;;;10.13;;
61038;SDS011;46919;45.816;3.104;2022-08-19T07:25:29;13.80;;;10.10;;
61038;SDS011;46919;45.816;3.104;2022-08-19T07:27:54;11.10;;;9.98;;
61038;SDS011;46919;45.816;3.104;2022-08-19T07:30:20;10.65;;;9.55;;
61038;SDS011;46919;45.816;3.104;2022-08-19T07:32:47;9.98;;;9.07;;
61038;SDS011;46919;45.816;3.104;2022-08-19T07:35:13;9.68;;;8.77;;
61038;SDS011;46919;45.816;3.104;2022-08-19T07:37:38;13.32;;;9.13;;
61038;SDS011;46919;45.816;3.104;2022-08-19T07:40:09;10.25;;;9.25;;
61038;SDS011;46919;45.816;3.104;2022-08-19T07:42:36;13.40;;;9.43;;
61038;SDS011;46919;45.816;3.104;2022-08-19T07:45:02;10.32;;;8.75;;
61038;SDS011;46919;45.816;3.104;2022-08-19T07:47:27;11.23;;;9.73;;
61038;SDS011;46919;45.816;3.104;2022-08-19T07:49:53;10.73;;;9.00;;
61038;SDS011;46919;45.816;3.104;2022-08-19T07:52:19;10.40;;;9.48;;
61038;SDS011;46919;45.816;3.104;2022-08-19T07:54:45;10.98;;;9.90;;
61038;SDS011;46919;45.816;3.104;2022-08-19T07:57:10;10.55;;;9.43;;
61038;SDS011;46919;45.816;3.104;2022-08-19T07:59:36;10.52;;;9.32;;
61038;SDS011;46919;45.816;3.104;2022-08-19T08:02:02;10.02;;;9.13;;
61038;SDS011;46919;45.816;3.104;2022-08-19T08:04:28;10.93;;;9.82;;
61038;SDS011;46919;45.816;3.104;2022-08-19T08:07:13;10.70;;;9.10;;
61038;SDS011;46919;45.816;3.104;2022-08-19T08:09:57;12.10;;;9.85;;
61038;SDS011;46919;45.816;3.104;2022-08-19T08:12:27;9.82;;;8.93;;
61038;SDS011;46919;45.816;3.104;2022-08-19T08:14:56;12.38;;;9.48;;
61038;SDS011;46919;45.816;3.104;2022-08-19T08:17:25;11.75;;;8.88;;
61038;SDS011;46919;45.816;3.104;2022-08-19T08:19:52;10.35;;;9.35;;
61038;SDS011;46919;45.816;3.104;2022-08-19T08:22:19;11.60;;;8.77;;
61038;SDS011;46919;45.816;3.104;2022-08-19T08:25:06;10.35;;;8.95;;
61038;SDS011;46919;45.816;3.104;2022-08-19T08:27:40;9.80;;;8.50;;
61038;SDS011;46919;45.816;3.104;2022-08-19T08:30:11;9.98;;;9.07;;
61038;SDS011;46919;45.816;3.104;2022-08-19T08:32:40;11.23;;;8.85;;
61038;SDS011;46919;45.816;3.104;2022-08-19T08:35:07;9.90;;;8.77;;
61038;SDS011;46919;45.816;3.104;2022-08-19T08:37:35;10.05;;;8.70;;
61038;SDS011;46919;45.816;3.104;2022-08-19T08:40:06;9.23;;;8.23;;
61038;SDS011;46919;45.816;3.104;2022-08-19T08:43:03;8.70;;;7.90;;
61038;SDS011;46919;45.816;3.104;2022-08-19T08:46:21;10.38;;;9.15;;
61038;SDS011;46919;45.816;3.104;2022-08-19T08:52:07;9.18;;;8.13;;
61038;SDS011;46919;45.816;3.104;2022-08-19T08:54:41;9.30;;;7.65;;
61038;SDS011;46919;45.816;3.104;2022-08-19T08:57:18;8.85;;;8.05;;
61038;SDS011;46919;45.816;3.104;2022-08-19T08:59:51;9.47;;;8.57;;
61038;SDS011;46919;45.816;3.104;2022-08-19T09:02:22;9.63;;;7.63;;
61038;SDS011;46919;45.816;3.104;2022-08-19T09:04:47;7.88;;;7.07;;
61038;SDS011;46919;45.816;3.104;2022-08-19T09:10:07;8.70;;;6.22;;
61038;SDS011;46919;45.816;3.104;2022-08-19T09:12:47;7.93;;;5.70;;
61038;SDS011;46919;45.816;3.104;2022-08-19T09:15:38;7.03;;;4.97;;
61038;SDS011;46919;45.816;3.104;2022-08-19T09:18:09;7.40;;;4.93;;
61038;SDS011;46919;45.816;3.104;2022-08-19T09:20:34;7.68;;;4.90;;
61038;SDS011;46919;45.816;3.104;2022-08-19T09:23:00;8.63;;;4.95;;
61038;SDS011;46919;45.816;3.104;2022-08-19T09:25:25;6.13;;;5.00;;
61038;SDS011;46919;45.816;3.104;2022-08-19T09:27:51;7.82;;;5.03;;
61038;SDS011;46919;45.816;3.104;2022-08-19T09:30:19;6.63;;;5.03;;
61038;SDS011;46919;45.816;3.104;2022-08-19T09:32:47;7.43;;;4.50;;
61038;SDS011;46919;45.816;3.104;2022-08-19T09:35:12;7.68;;;4.65;;
61038;SDS011;46919;45.816;3.104;2022-08-19T09:37:39;7.72;;;4.50;;
61038;SDS011;46919;45.816;3.104;2022-08-19T09:40:04;5.20;;;4.32;;
61038;SDS011;46919;45.816;3.104;2022-08-19T09:42:31;5.13;;;4.63;;
61038;SDS011;46919;45.816;3.104;2022-08-19T09:44:57;4.47;;;4.00;;
61038;SDS011;46919;45.816;3.104;2022-08-19T09:47:22;4.75;;;3.78;;
61038;SDS011;46919;45.816;3.104;2022-08-19T09:49:47;6.40;;;3.47;;
61038;SDS011;46919;45.816;3.104;2022-08-19T09:52:13;5.68;;;3.83;;
61038;SDS011;46919;45.816;3.104;2022-08-19T09:54:40;3.95;;;3.50;;
61038;SDS011;46919;45.816;3.104;2022-08-19T09:57:05;6.07;;;3.47;;
61038;SDS011;46919;45.816;3.104;2022-08-19T09:59:31;4.95;;;4.10;;
61038;SDS011;46919;45.816;3.104;2022-08-19T10:01:57;4.38;;;3.70;;
61038;SDS011;46919;45.816;3.104;2022-08-19T10:04:22;6.32;;;3.42;;
61038;SDS011;46919;45.816;3.104;2022-08-19T10:07:08;4.55;;;3.33;;
61038;SDS011;46919;45.816;3.104;2022-08-19T10:09:34;5.93;;;3.88;;
61038;SDS011;46919;45.816;3.104;2022-08-19T10:11:59;5.53;;;3.00;;
61038;SDS011;46919;45.816;3.104;2022-08-19T10:14:26;5.78;;;3.30;;
61038;SDS011;46919;45.816;3.104;2022-08-19T10:16:52;3.78;;;2.88;;
61038;SDS011;46919;45.816;3.104;2022-08-19T10:19:18;4.22;;;3.35;;
61038;SDS011;46919;45.816;3.104;2022-08-19T10:21:45;5.60;;;2.83;;
61038;SDS011;46919;45.816;3.104;2022-08-19T10:24:10;3.92;;;2.92;;
61038;SDS011;46919;45.816;3.104;2022-08-19T10:26:36;2.90;;;2.38;;
61038;SDS011;46919;45.816;3.104;2022-08-19T10:29:06;3.67;;;2.10;;
61038;SDS011;46919;45.816;3.104;2022-08-19T10:31:32;4.07;;;2.30;;
61038;SDS011;46919;45.816;3.104;2022-08-19T10:33:59;3.88;;;2.30;;
61038;SDS011;46919;45.816;3.104;2022-08-19T10:36:31;4.38;;;2.90;;
61038;SDS011;46919;45.816;3.104;2022-08-19T10:41:33;3.03;;;2.53;;
61038;SDS011;46919;45.816;3.104;2022-08-19T10:44:07;4.03;;;2.22;;
61038;SDS011;46919;45.816;3.104;2022-08-19T10:46:35;2.95;;;2.00;;
61038;SDS011;46919;45.816;3.104;2022-08-19T10:49:03;1.30;;;1.20;;
61038;SDS011;46919;45.816;3.104;2022-08-19T10:51:30;1.10;;;1.00;;
61038;SDS011;46919;45.816;3.104;2022-08-19T10:54:14;1.83;;;1.50;;
61038;SDS011;46919;45.816;3.104;2022-08-19T10:56:40;1.80;;;1.25;;
61038;SDS011;46919;45.816;3.104;2022-08-19T10:59:19;1.27;;;1.17;;
61038;SDS011;46919;45.816;3.104;2022-08-19T11:01:47;2.67;;;1.05;;
61038;SDS011;46919;45.816;3.104;2022-08-19T11:04:13;1.60;;;1.08;;
61038;SDS011;46919;45.816;3.104;2022-08-19T11:06:40;1.13;;;0.90;;
61038;SDS011;46919;45.816;3.104;2022-08-19T11:09:08;2.75;;;1.05;;
61038;SDS011;46919;45.816;3.104;2022-08-19T11:11:36;1.13;;;1.00;;
61038;SDS011;46919;45.816;3.104;2022-08-19T11:14:05;1.20;;;1.10;;
61038;SDS011;46919;45.816;3.104;2022-08-19T11:16:32;1.30;;;1.20;;
61038;SDS011;46919;45.816;3.104;2022-08-19T11:18:58;1.20;;;1.10;;
61038;SDS011;46919;45.816;3.104;2022-08-19T11:21:26;1.40;;;1.30;;
61038;SDS011;46919;45.816;3.104;2022-08-19T11:23:55;1.25;;;1.15;;
61038;SDS011;46919;45.816;3.104;2022-08-19T11:26:22;1.52;;;1.42;;
61038;SDS011;46919;45.816;3.104;2022-08-19T11:28:49;1.23;;;1.13;;
61038;SDS011;46919;45.816;3.104;2022-08-19T11:31:20;1.80;;;1.35;;
61038;SDS011;46919;45.816;3.104;2022-08-19T11:33:47;1.80;;;1.65;;
61038;SDS011;46919;45.816;3.104;2022-08-19T11:36:17;1.60;;;1.50;;
61038;SDS011;46919;45.816;3.104;2022-08-19T11:38:47;1.77;;;1.30;;
61038;SDS011;46919;45.816;3.104;2022-08-19T11:41:14;2.15;;;1.30;;
61038;SDS011;46919;45.816;3.104;2022-08-19T11:43:41;1.65;;;1.40;;
61038;SDS011;46919;45.816;3.104;2022-08-19T11:46:07;2.05;;;1.45;;
61038;SDS011;46919;45.816;3.104;2022-08-19T11:48:35;1.40;;;1.30;;
61038;SDS011;46919;45.816;3.104;2022-08-19T11:51:03;2.88;;;1.35;;
61038;SDS011;46919;45.816;3.104;2022-08-19T11:53:31;1.63;;;1.52;;
61038;SDS011;46919;45.816;3.104;2022-08-19T11:55:56;1.77;;;1.63;;
61038;SDS011;46919;45.816;3.104;2022-08-19T11:58:22;3.15;;;2.00;;
61038;SDS011;46919;45.816;3.104;2022-08-19T12:00:50;2.38;;;2.03;;
61038;SDS011;46919;45.816;3.104;2022-08-19T12:03:16;3.25;;;2.22;;
61038;SDS011;46919;45.816;3.104;2022-08-19T12:05:42;4.85;;;2.75;;
61038;SDS011;46919;45.816;3.104;2022-08-19T12:08:08;3.17;;;2.80;;
61038;SDS011;46919;45.816;3.104;2022-08-19T12:10:34;3.50;;;2.67;;
61038;SDS011;46919;45.816;3.104;2022-08-19T12:12:59;4.65;;;2.95;;
61038;SDS011;46919;45.816;3.104;2022-08-19T12:15:26;4.05;;;2.75;;
61038;SDS011;46919;45.816;3.104;2022-08-19T12:17:53;2.78;;;2.58;;
61038;SDS011;46919;45.816;3.104;2022-08-19T12:20:21;3.55;;;2.42;;
61038;SDS011;46919;45.816;3.104;2022-08-19T12:22:48;3.75;;;2.92;;
61038;SDS011;46919;45.816;3.104;2022-08-19T12:25:15;2.90;;;2.53;;
61038;SDS011;46919;45.816;3.104;2022-08-19T12:27:40;3.67;;;3.38;;
61038;SDS011;46919;45.816;3.104;2022-08-19T12:30:07;3.28;;;2.90;;
61038;SDS011;46919;45.816;3.104;2022-08-19T12:32:35;5.40;;;2.90;;
61038;SDS011;46919;45.816;3.104;2022-08-19T12:35:01;3.13;;;2.72;;
61038;SDS011;46919;45.816;3.104;2022-08-19T12:37:26;3.75;;;2.50;;
61038;SDS011;46919;45.816;3.104;2022-08-19T12:39:52;3.20;;;2.47;;
61038;SDS011;46919;45.816;3.104;2022-08-19T12:42:17;5.00;;;2.90;;
61038;SDS011;46919;45.816;3.104;2022-08-19T12:44:43;4.75;;;2.80;;
61038;SDS011;46919;45.816;3.104;2022-08-19T12:47:10;3.97;;;3.53;;
61038;SDS011;46919;45.816;3.104;2022-08-19T12:49:37;6.45;;;3.63;;
61038;SDS011;46919;45.816;3.104;2022-08-19T12:52:04;4.43;;;3.70;;
61038;SDS011;46919;45.816;3.104;2022-08-19T12:54:32;4.75;;;3.38;;
61038;SDS011;46919;45.816;3.104;2022-08-19T12:56:58;5.13;;;3.50;;
61038;SDS011;46919;45.816;3.104;2022-08-19T12:59:24;3.78;;;3.20;;
61038;SDS011;46919;45.816;3.104;2022-08-19T13:01:50;4.20;;;3.05;;
61038;SDS011;46919;45.816;3.104;2022-08-19T13:04:15;4.25;;;3.13;;
61038;SDS011;46919;45.816;3.104;2022-08-19T13:06:41;4.55;;;3.55;;
61038;SDS011;46919;45.816;3.104;2022-08-19T13:09:07;4.80;;;3.33;;
61038;SDS011;46919;45.816;3.104;2022-08-19T13:11:34;3.42;;;3.13;;
61038;SDS011;46919;45.816;3.104;2022-08-19T13:14:00;3.88;;;3.42;;
61038;SDS011;46919;45.816;3.104;2022-08-19T13:16:27;3.75;;;3.13;;
61038;SDS011;46919;45.816;3.104;2022-08-19T13:18:53;4.03;;;3.35;;
61038;SDS011;46919;45.816;3.104;2022-08-19T13:21:21;4.35;;;3.22;;
61038;SDS011;46919;45.816;3.104;2022-08-19T13:23:48;5.20;;;3.13;;
61038;SDS011;46919;45.816;3.104;2022-08-19T13:26:15;3.63;;;2.95;;
61038;SDS011;46919;45.816;3.104;2022-08-19T13:28:42;3.03;;;2.53;;
61038;SDS011;46919;45.816;3.104;2022-08-19T13:31:28;3.13;;;2.70;;
61038;SDS011;46919;45.816;3.104;2022-08-19T13:34:15;3.58;;;2.45;;
61038;SDS011;46919;45.816;3.104;2022-08-19T13:36:42;2.63;;;2.28;;
61038;SDS011;46919;45.816;3.104;2022-08-19T13:39:08;3.25;;;1.92;;
61038;SDS011;46919;45.816;3.104;2022-08-19T13:41:34;2.33;;;2.08;;
61038;SDS011;46919;45.816;3.104;2022-08-19T13:44:00;3.78;;;1.90;;
61038;SDS011;46919;45.816;3.104;2022-08-19T13:46:26;2.17;;;2.00;;
61038;SDS011;46919;45.816;3.104;2022-08-19T13:48:54;3.08;;;1.98;;
61038;SDS011;46919;45.816;3.104;2022-08-19T13:51:21;3.88;;;2.20;;
61038;SDS011;46919;45.816;3.104;2022-08-19T13:53:46;3.83;;;1.90;;
61038;SDS011;46919;45.816;3.104;2022-08-19T13:56:14;3.00;;;1.83;;
61038;SDS011;46919;45.816;3.104;2022-08-19T13:58:41;3.38;;;2.10;;
61038;SDS011;46919;45.816;3.104;2022-08-19T14:01:07;2.83;;;2.15;;
61038;SDS011;46919;45.816;3.104;2022-08-19T14:03:34;5.53;;;1.85;;
61038;SDS011;46919;45.816;3.104;2022-08-19T14:06:00;3.90;;;2.00;;
61038;SDS011;46919;45.816;3.104;2022-08-19T14:08:26;4.50;;;2.08;;
61038;SDS011;46919;45.816;3.104;2022-08-19T14:10:53;2.92;;;2.50;;
61038;SDS011;46919;45.816;3.104;2022-08-19T14:13:20;2.30;;;2.00;;
61038;SDS011;46919;45.816;3.104;2022-08-19T14:15:47;3.83;;;1.92;;
61038;SDS011;46919;45.816;3.104;2022-08-19T14:18:14;2.33;;;1.38;;
61038;SDS011;46919;45.816;3.104;2022-08-19T14:20:41;2.03;;;1.70;;
61038;SDS011;46919;45.816;3.104;2022-08-19T14:23:06;3.22;;;1.63;;
61038;SDS011;46919;45.816;3.104;2022-08-19T14:25:32;2.58;;;1.60;;
61038;SDS011;46919;45.816;3.104;2022-08-19T14:27:58;1.55;;;1.45;;
61038;SDS011;46919;45.816;3.104;2022-08-19T14:30:26;1.50;;;1.40;;
61038;SDS011;46919;45.816;3.104;2022-08-19T14:32:54;1.70;;;1.60;;
61038;SDS011;46919;45.816;3.104;2022-08-19T14:35:21;2.60;;;1.67;;
61038;SDS011;46919;45.816;3.104;2022-08-19T14:37:48;1.52;;;1.42;;
61038;SDS011;46919;45.816;3.104;2022-08-19T14:40:14;2.05;;;1.70;;
61038;SDS011;46919;45.816;3.104;2022-08-19T14:42:43;2.08;;;1.75;;
61038;SDS011;46919;45.816;3.104;2022-08-19T14:45:09;2.80;;;1.77;;
61038;SDS011;46919;45.816;3.104;2022-08-19T14:47:36;2.67;;;1.73;;
61038;SDS011;46919;45.816;3.104;2022-08-19T14:50:03;3.70;;;1.73;;
61038;SDS011;46919;45.816;3.104;2022-08-19T14:52:31;2.70;;;1.60;;
61038;SDS011;46919;45.816;3.104;2022-08-19T14:54:57;3.90;;;1.55;;
61038;SDS011;46919;45.816;3.104;2022-08-19T14:57:22;2.97;;;1.90;;
61038;SDS011;46919;45.816;3.104;2022-08-19T14:59:48;2.30;;;1.73;;
61038;SDS011;46919;45.816;3.104;2022-08-19T15:02:14;2.45;;;1.70;;